Time;durP1;ratioP1;P1;durP2;ratioP2;P2;SDS_P1;SDS_P2;PMS_P1;PMS_P2;Temp;Humidity;BMP_temperature;BMP_pressure;BME280_temperature;BME280_humidity;BME280_pressure;Samples;Min_cycle;Max_cycle;Signal;HPM_P1;HPM_P2
2024/02/03 00:00:44;;;;;;;3.75;2.03;;;23.50;41.50;;;;;;6132749;28;82279;-63
2024/02/03 00:03:44;;;;;;;5.80;2.40;;;23.50;41.50;;;;;;6130295;28;81212;-49
2024/02/03 00:06:45;;;;;;;3.53;1.95;;;23.50;42.20;;;;;;6131939;28;80869;-50
2024/02/03 00:09:47;;;;;;;3.03;1.98;;;23.50;41.60;;;;;;6128511;28;81422;-53
2024/02/03 00:12:48;;;;;;;5.10;2.60;;;23.50;41.60;;;;;;6133937;28;80935;-48
2024/02/03 00:15:48;;;;;;;2.88;1.98;;;23.50;41.60;;;;;;6135081;28;80664;-52
2024/02/03 00:18:49;;;;;;;5.30;2.63;;;23.50;41.60;;;;;;6131593;28;80931;-54
2024/02/03 00:21:49;;;;;;;3.80;2.25;;;23.50;41.70;;;;;;6135277;28;81307;-51
2024/02/03 00:24:50;;;;;;;4.70;2.42;;;23.50;41.60;;;;;;6132138;28;81023;-51
2024/02/03 00:27:50;;;;;;;3.65;2.30;;;23.50;41.60;;;;;;6136352;28;81549;-48
2024/02/03 00:30:50;;;;;;;5.43;2.20;;;23.50;41.80;;;;;;6132084;28;85431;-50
2024/02/03 00:33:51;;;;;;;3.03;1.88;;;23.50;41.60;;;;;;6133227;28;82022;-54
2024/02/03 00:36:51;;;;;;;3.85;2.47;;;23.50;41.70;;;;;;6138893;28;83765;-51
2024/02/03 00:39:52;;;;;;;3.25;2.38;;;23.50;42.40;;;;;;6146502;28;80405;-49
2024/02/03 00:42:53;;;;;;;2.92;1.90;;;23.50;42.20;;;;;;6150704;28;82598;-51
2024/02/03 00:45:53;;;;;;;3.35;2.25;;;23.50;41.90;;;;;;6151678;28;80862;-53
2024/02/03 00:48:54;;;;;;;4.20;2.10;;;23.50;42.00;;;;;;6139613;28;80912;-48
2024/02/03 00:51:54;;;;;;;3.30;2.13;;;23.50;42.10;;;;;;6149221;28;80582;-53
2024/02/03 00:54:55;;;;;;;6.15;2.22;;;23.50;42.30;;;;;;6136695;28;81470;-49
2024/02/03 00:57:56;;;;;;;3.67;2.15;;;23.50;42.30;;;;;;6151469;28;80918;-50
2024/02/03 01:00:56;;;;;;;4.68;1.95;;;23.50;42.40;;;;;;6148288;28;80397;-49
2024/02/03 01:03:57;;;;;;;4.32;2.20;;;23.50;42.20;;;;;;6150661;28;80410;-49
2024/02/03 01:06:59;;;;;;;3.30;1.98;;;23.50;42.20;;;;;;6144374;28;80613;-52
2024/02/03 01:09:59;;;;;;;3.22;1.90;;;23.50;42.00;;;;;;6154308;28;80700;-51
2024/02/03 01:13:00;;;;;;;3.53;2.13;;;23.50;41.90;;;;;;6139908;28;80507;-52
2024/02/03 01:16:00;;;;;;;3.85;2.33;;;23.50;41.90;;;;;;6141147;28;80890;-52
2024/02/03 01:19:01;;;;;;;3.33;1.80;;;23.50;41.90;;;;;;6153066;28;80204;-47
2024/02/03 01:22:01;;;;;;;3.05;1.88;;;23.50;41.80;;;;;;6153780;28;80440;-46
2024/02/03 01:25:03;;;;;;;4.22;2.00;;;23.50;41.80;;;;;;6141299;28;81425;-52
2024/02/03 01:28:03;;;;;;;4.75;2.05;;;23.50;41.80;;;;;;6152380;28;80625;-49
2024/02/03 01:31:04;;;;;;;3.42;1.70;;;23.50;41.70;;;;;;6145335;28;80534;-51
2024/02/03 01:34:04;;;;;;;3.47;1.98;;;23.50;41.90;;;;;;6130169;28;83530;-51
2024/02/03 01:37:05;;;;;;;3.17;2.00;;;23.50;41.90;;;;;;6152601;28;80630;-53
2024/02/03 01:40:05;;;;;;;3.05;1.80;;;23.50;41.90;;;;;;6136133;28;80391;-54
2024/02/03 01:43:06;;;;;;;3.53;1.52;;;23.50;41.90;;;;;;6144637;28;81001;-50
2024/02/03 01:46:06;;;;;;;3.70;2.08;;;23.50;41.90;;;;;;6147688;28;80456;-54
2024/02/03 01:49:06;;;;;;;3.20;1.85;;;23.50;41.80;;;;;;6153134;28;80464;-51
2024/02/03 01:52:07;;;;;;;2.72;1.88;;;23.50;41.80;;;;;;6151929;28;80651;-53
2024/02/03 01:55:08;;;;;;;3.25;2.03;;;23.40;41.70;;;;;;6149452;28;81017;-63
2024/02/03 01:58:12;;;;;;;3.00;1.92;;;23.40;41.80;;;;;;6143021;28;81725;-64
2024/02/03 02:01:12;;;;;;;3.97;1.90;;;23.50;41.90;;;;;;6139838;28;80878;-64
2024/02/03 02:04:13;;;;;;;3.60;2.13;;;23.50;42.10;;;;;;6153381;28;80562;-64
2024/02/03 02:07:13;;;;;;;2.92;1.70;;;23.50;42.10;;;;;;6152113;28;81047;-64
2024/02/03 02:10:15;;;;;;;3.13;1.90;;;23.40;41.90;;;;;;6130652;28;80248;-65
2024/02/03 02:13:15;;;;;;;2.88;1.92;;;23.50;41.80;;;;;;6146558;28;80998;-64
2024/02/03 02:16:16;;;;;;;3.45;1.80;;;23.40;41.80;;;;;;6142122;28;80990;-63
2024/02/03 02:19:16;;;;;;;2.28;1.70;;;23.40;41.90;;;;;;6147772;28;79978;-65
2024/02/03 02:22:17;;;;;;;2.78;1.80;;;23.40;42.20;;;;;;6151024;28;80776;-64
2024/02/03 02:25:17;;;;;;;2.88;1.70;;;23.50;42.20;;;;;;6145499;28;80365;-64
2024/02/03 02:28:18;;;;;;;3.83;2.00;;;23.40;42.10;;;;;;6151994;28;81107;-64
2024/02/03 02:31:18;;;;;;;4.68;2.08;;;23.40;42.20;;;;;;6150678;28;80925;-65
2024/02/03 02:34:19;;;;;;;2.75;1.90;;;23.50;42.10;;;;;;6153056;28;81165;-65
2024/02/03 02:37:19;;;;;;;3.70;2.00;;;23.40;42.10;;;;;;6151207;28;81762;-65
2024/02/03 02:40:20;;;;;;;3.35;1.70;;;23.40;42.00;;;;;;6152014;28;80912;-62
2024/02/03 02:43:20;;;;;;;2.47;1.45;;;23.40;42.00;;;;;;6135664;28;80748;-63
2024/02/03 02:46:25;;;;;;;2.80;1.83;;;23.40;42.10;;;;;;6140680;28;80342;-66
2024/02/03 02:49:26;;;;;;;2.40;1.40;;;23.40;42.20;;;;;;6142516;28;81539;-51
2024/02/03 02:52:26;;;;;;;2.53;1.63;;;23.40;42.10;;;;;;6152161;28;80625;-49
2024/02/03 02:55:27;;;;;;;2.67;1.75;;;23.40;42.00;;;;;;6152179;28;80754;-50
2024/02/03 02:58:27;;;;;;;3.15;1.75;;;23.40;42.00;;;;;;6139588;28;80558;-50
2024/02/03 03:01:28;;;;;;;3.30;1.80;;;23.40;42.00;;;;;;6151099;28;80393;-49
2024/02/03 03:04:28;;;;;;;3.25;2.03;;;23.40;42.10;;;;;;6150785;28;82626;-48
2024/02/03 03:07:29;;;;;;;2.72;1.67;;;23.40;42.10;;;;;;6151169;28;80517;-48
2024/02/03 03:10:29;;;;;;;2.90;1.85;;;23.40;42.20;;;;;;6150995;28;80168;-50
2024/02/03 03:13:30;;;;;;;3.15;1.58;;;23.50;42.20;;;;;;6151342;28;80763;-47
2024/02/03 03:16:30;;;;;;;2.50;1.67;;;23.40;42.10;;;;;;6150490;28;81324;-48
2024/02/03 03:19:31;;;;;;;2.33;1.67;;;23.40;42.30;;;;;;6149989;28;80523;-49
2024/02/03 03:22:31;;;;;;;3.58;1.77;;;23.40;42.20;;;;;;6145549;28;80843;-54
2024/02/03 03:25:32;;;;;;;2.70;2.03;;;23.40;42.30;;;;;;6153396;28;80265;-50
2024/02/03 03:28:32;;;;;;;3.38;1.83;;;23.40;42.20;;;;;;6154998;28;82214;-50
2024/02/03 03:31:33;;;;;;;2.97;1.67;;;23.40;42.20;;;;;;6144953;28;80655;-50
2024/02/03 03:34:33;;;;;;;2.90;2.05;;;23.40;42.40;;;;;;6152326;28;80643;-50
2024/02/03 03:37:34;;;;;;;3.25;1.80;;;23.40;42.50;;;;;;6152188;28;80426;-50
2024/02/03 03:40:34;;;;;;;3.95;2.05;;;23.40;42.30;;;;;;6141065;28;80557;-48
2024/02/03 03:43:35;;;;;;;2.35;1.70;;;23.40;42.30;;;;;;6152179;28;80517;-48
2024/02/03 03:46:35;;;;;;;3.53;1.63;;;23.40;42.30;;;;;;6151266;28;81523;-52
2024/02/03 03:49:36;;;;;;;2.58;1.80;;;23.40;42.30;;;;;;6151131;28;80269;-47
2024/02/03 03:52:36;;;;;;;3.15;1.83;;;23.40;42.40;;;;;;6154978;28;81412;-49
2024/02/03 03:55:37;;;;;;;2.97;1.40;;;23.40;42.60;;;;;;6154848;28;80494;-50
2024/02/03 03:58:37;;;;;;;2.97;1.77;;;23.40;42.40;;;;;;6155585;28;81052;-49
2024/02/03 04:01:38;;;;;;;3.88;1.88;;;23.40;42.70;;;;;;6156255;28;80422;-51
2024/02/03 04:04:38;;;;;;;2.53;1.70;;;23.50;42.60;;;;;;6153947;28;81337;-47
2024/02/03 04:07:39;;;;;;;2.15;1.33;;;23.40;42.70;;;;;;6153968;28;81720;-49
2024/02/03 04:10:39;;;;;;;2.92;1.50;;;23.40;42.60;;;;;;6174182;28;80890;-46
2024/02/03 04:13:40;;;;;;;2.88;1.60;;;23.40;42.50;;;;;;6159357;28;80349;-48
2024/02/03 04:16:40;;;;;;;2.33;1.35;;;23.40;42.50;;;;;;6154128;28;80829;-48
2024/02/03 04:19:41;;;;;;;2.10;1.80;;;23.50;42.70;;;;;;6144807;28;81057;-46
2024/02/03 04:22:41;;;;;;;2.30;1.50;;;23.50;43.00;;;;;;6155391;28;81929;-52
2024/02/03 04:25:42;;;;;;;3.92;1.58;;;23.50;43.00;;;;;;6151761;28;80255;-53
2024/02/03 04:28:42;;;;;;;2.08;1.75;;;23.50;42.90;;;;;;6174890;28;80402;-57
2024/02/03 04:31:43;;;;;;;3.30;1.70;;;23.50;42.80;;;;;;6151241;28;81010;-56
2024/02/03 04:34:43;;;;;;;2.60;1.42;;;23.50;42.90;;;;;;6150299;28;81401;-53
2024/02/03 04:37:44;;;;;;;3.20;1.45;;;23.50;43.00;;;;;;6151306;28;82714;-55
2024/02/03 04:40:44;;;;;;;1.58;1.30;;;23.60;43.10;;;;;;6148245;28;80721;-50
2024/02/03 04:43:45;;;;;;;2.15;1.40;;;23.60;43.10;;;;;;6174142;28;80123;-52
2024/02/03 04:46:45;;;;;;;1.60;1.30;;;23.60;43.30;;;;;;6151594;28;85274;-53
2024/02/03 04:49:46;;;;;;;2.15;1.42;;;23.60;43.50;;;;;;6146789;28;80501;-51
2024/02/03 04:52:46;;;;;;;2.83;1.65;;;23.70;43.70;;;;;;6153439;28;81709;-50
2024/02/03 04:55:47;;;;;;;2.45;1.70;;;23.70;43.60;;;;;;6152976;28;80296;-53
2024/02/03 04:58:47;;;;;;;3.08;1.50;;;23.70;43.60;;;;;;6154233;28;80752;-53
2024/02/03 05:01:47;;;;;;;2.67;1.20;;;23.70;43.70;;;;;;6154223;28;80901;-53
2024/02/03 05:04:48;;;;;;;1.83;1.63;;;23.80;43.90;;;;;;6153532;28;80811;-52
2024/02/03 05:07:49;;;;;;;2.10;1.40;;;23.80;44.00;;;;;;6153408;28;80840;-52
2024/02/03 05:10:49;;;;;;;3.15;1.70;;;23.80;44.10;;;;;;6153790;28;80638;-51
2024/02/03 05:13:49;;;;;;;3.22;1.27;;;23.80;44.50;;;;;;6147910;28;82899;-49
2024/02/03 05:16:50;;;;;;;2.72;1.45;;;23.80;44.30;;;;;;6152762;28;80612;-64
2024/02/03 05:19:50;;;;;;;1.90;1.38;;;23.80;44.50;;;;;;6152866;28;80413;-64
2024/02/03 05:22:51;;;;;;;4.03;1.73;;;23.80;44.40;;;;;;6153514;28;80698;-63
2024/02/03 05:25:51;;;;;;;2.55;1.23;;;23.80;44.40;;;;;;6152381;28;81435;-63
2024/02/03 05:28:52;;;;;;;2.45;1.30;;;23.90;44.50;;;;;;6153894;28;81380;-63
2024/02/03 05:31:52;;;;;;;1.67;1.20;;;23.90;44.50;;;;;;6144661;28;80429;-62
2024/02/03 05:34:53;;;;;;;1.40;1.30;;;23.90;44.60;;;;;;6152880;28;81440;-61
2024/02/03 05:37:53;;;;;;;1.70;1.13;;;23.90;44.50;;;;;;6152213;28;80500;-60
2024/02/03 05:40:54;;;;;;;2.38;1.15;;;23.90;44.50;;;;;;6145486;28;80715;-61
2024/02/03 05:43:54;;;;;;;3.60;1.10;;;23.90;44.60;;;;;;6148329;28;80538;-61
2024/02/03 05:46:55;;;;;;;2.78;1.17;;;23.90;44.50;;;;;;6152382;28;80531;-61
2024/02/03 05:49:55;;;;;;;2.03;1.27;;;23.90;44.40;;;;;;6152076;28;80426;-60
2024/02/03 05:52:56;;;;;;;1.20;0.95;;;23.90;44.50;;;;;;6152581;28;80614;-60
2024/02/03 05:55:56;;;;;;;1.73;1.20;;;24.00;44.50;;;;;;6139788;28;81442;-59
2024/02/03 05:58:57;;;;;;;3.10;1.00;;;23.90;44.60;;;;;;6152782;28;81009;-59
2024/02/03 06:01:58;;;;;;;4.43;1.20;;;23.90;44.60;;;;;;6153294;28;80479;-59
2024/02/03 06:04:58;;;;;;;2.05;1.20;;;23.90;44.80;;;;;;6140186;28;81194;-60
2024/02/03 06:07:59;;;;;;;1.35;1.20;;;23.90;44.80;;;;;;6141497;28;80824;-59
2024/02/03 06:10:59;;;;;;;4.25;1.40;;;23.90;44.90;;;;;;6142374;28;80162;-59
2024/02/03 06:14:00;;;;;;;3.25;1.20;;;23.90;45.00;;;;;;6149863;28;81212;-61
2024/02/03 06:17:00;;;;;;;1.20;1.10;;;23.90;45.00;;;;;;6146490;28;81409;-62
2024/02/03 06:20:01;;;;;;;2.10;1.40;;;23.90;45.30;;;;;;6150710;28;80474;-60
2024/02/03 06:23:01;;;;;;;4.10;1.48;;;23.90;45.20;;;;;;6147743;28;80498;-68
2024/02/03 06:26:02;;;;;;;4.05;1.10;;;23.90;45.60;;;;;;6153077;28;80886;-67
2024/02/03 06:29:02;;;;;;;1.95;1.25;;;23.80;45.60;;;;;;6140189;28;80926;-70
2024/02/03 06:32:04;;;;;;;4.18;1.33;;;23.80;45.40;;;;;;6151282;28;80411;-69
2024/02/03 06:35:04;;;;;;;1.70;1.15;;;23.80;45.50;;;;;;6152138;28;80519;-69
2024/02/03 06:38:05;;;;;;;1.58;1.10;;;23.80;45.30;;;;;;6152728;28;81625;-67
2024/02/03 06:41:05;;;;;;;4.68;1.35;;;23.80;45.10;;;;;;6151617;28;80562;-66
2024/02/03 06:44:06;;;;;;;3.63;1.10;;;23.80;45.30;;;;;;6139433;28;87805;-66
2024/02/03 06:47:06;;;;;;;2.13;1.02;;;23.70;44.80;;;;;;6132151;28;81084;-68
2024/02/03 06:50:07;;;;;;;2.38;1.70;;;23.70;44.60;;;;;;6146304;28;81690;-63
2024/02/03 06:53:08;;;;;;;10.40;4.07;;;23.70;44.50;;;;;;6147875;28;80629;-64
2024/02/03 06:56:09;;;;;;;16.10;7.05;;;23.80;44.60;;;;;;6149452;28;80473;-67
2024/02/03 06:59:09;;;;;;;15.98;7.40;;;23.70;45.40;;;;;;6151433;28;80351;-62
2024/02/03 07:02:10;;;;;;;21.17;7.10;;;23.80;45.40;;;;;;6154968;28;80259;-64
2024/02/03 07:05:10;;;;;;;16.35;7.20;;;23.80;45.60;;;;;;6156371;28;80685;-69
2024/02/03 07:08:11;;;;;;;19.52;7.30;;;23.80;45.50;;;;;;6142763;28;80732;-59
2024/02/03 07:11:11;;;;;;;17.92;6.80;;;23.80;45.50;;;;;;6153167;28;80451;-65
2024/02/03 07:14:12;;;;;;;18.88;6.55;;;23.80;45.40;;;;;;6152120;28;83701;-64
2024/02/03 07:17:12;;;;;;;15.70;6.63;;;23.80;45.60;;;;;;6153990;28;80498;-66
2024/02/03 07:20:13;;;;;;;13.73;6.78;;;23.80;45.40;;;;;;6154171;28;80402;-70
2024/02/03 07:23:13;;;;;;;17.08;6.65;;;23.80;45.40;;;;;;6150496;28;82454;-70
2024/02/03 07:26:14;;;;;;;14.55;6.05;;;23.80;45.40;;;;;;6153405;28;80624;-53
2024/02/03 07:29:15;;;;;;;14.77;6.90;;;23.80;45.30;;;;;;6152644;28;80819;-51
2024/02/03 07:32:15;;;;;;;16.70;6.35;;;23.80;45.90;;;;;;6147741;28;80827;-52
2024/02/03 07:35:16;;;;;;;12.85;5.82;;;23.70;46.70;;;;;;6155873;28;80628;-55
2024/02/03 07:38:16;;;;;;;12.25;5.72;;;23.80;47.40;;;;;;6154784;28;80796;-53
2024/02/03 07:41:17;;;;;;;18.92;5.78;;;23.80;47.80;;;;;;6151688;28;86762;-56
2024/02/03 07:44:18;;;;;;;18.40;5.38;;;23.80;47.80;;;;;;6176872;28;80448;-52
2024/02/03 07:47:18;;;;;;;16.90;6.13;;;23.80;47.70;;;;;;6142780;28;80710;-54
2024/02/03 07:50:19;;;;;;;14.35;5.82;;;23.90;48.30;;;;;;6143726;28;80544;-56
2024/02/03 07:53:19;;;;;;;16.55;6.07;;;23.90;48.60;;;;;;6148436;28;82504;-55
2024/02/03 07:56:20;;;;;;;12.25;5.40;;;23.90;48.60;;;;;;6144483;28;80709;-58
2024/02/03 07:59:20;;;;;;;15.38;5.38;;;24.00;48.10;;;;;;6142434;28;81536;-51
2024/02/03 08:02:21;;;;;;;11.10;4.65;;;23.90;48.10;;;;;;6142702;28;81337;-51
2024/02/03 08:05:21;;;;;;;11.30;4.95;;;23.90;48.60;;;;;;6142145;28;87835;-48
2024/02/03 08:08:22;;;;;;;11.88;4.90;;;23.90;48.00;;;;;;6154786;28;81822;-50
2024/02/03 08:11:22;;;;;;;12.30;4.90;;;23.90;48.30;;;;;;6170747;28;80413;-52
2024/02/03 08:14:23;;;;;;;12.68;4.43;;;23.90;48.30;;;;;;6143584;28;80942;-55
2024/02/03 08:17:23;;;;;;;7.97;3.75;;;23.90;47.70;;;;;;6154210;28;84414;-52
2024/02/03 08:20:24;;;;;;;8.65;4.40;;;23.90;47.50;;;;;;6153464;28;81199;-57
2024/02/03 08:23:24;;;;;;;11.65;4.25;;;23.90;47.70;;;;;;6151795;28;81002;-56
2024/02/03 08:26:25;;;;;;;7.40;3.53;;;23.90;47.50;;;;;;6153839;28;80883;-51
2024/02/03 08:29:25;;;;;;;11.30;3.92;;;23.90;47.40;;;;;;6152776;28;81775;-52
2024/02/03 08:32:26;;;;;;;7.43;4.18;;;23.90;47.30;;;;;;6148468;28;84524;-48
2024/02/03 08:35:27;;;;;;;15.02;4.95;;;23.80;48.20;;;;;;6146698;28;81837;-54
2024/02/03 08:38:27;;;;;;;11.85;4.53;;;23.80;49.00;;;;;;6154352;28;82187;-67
2024/02/03 08:41:28;;;;;;;7.90;4.25;;;23.90;48.20;;;;;;6153732;28;80801;-69
2024/02/03 08:44:28;;;;;;;10.90;3.17;;;23.90;48.20;;;;;;6135741;28;82970;-64
2024/02/03 08:47:29;;;;;;;13.70;3.17;;;23.90;48.20;;;;;;6144350;28;80489;-68
2024/02/03 08:50:30;;;;;;;9.75;3.50;;;23.90;48.20;;;;;;6152295;28;81489;-69
2024/02/03 08:53:32;;;;;;;8.43;3.92;;;23.90;48.10;;;;;;6141995;28;81571;-69
2024/02/03 08:56:33;;;;;;;14.88;3.13;;;23.90;47.90;;;;;;6150365;28;80846;-67
2024/02/03 08:59:33;;;;;;;8.82;3.60;;;23.90;47.80;;;;;;6137343;28;81076;-67
2024/02/03 09:02:34;;;;;;;6.32;3.17;;;23.90;47.70;;;;;;6151210;28;80850;-75
2024/02/03 09:05:34;;;;;;;7.38;2.88;;;23.90;47.40;;;;;;6145755;28;80532;-70
2024/02/03 09:08:35;;;;;;;6.82;3.22;;;23.90;47.50;;;;;;6143503;28;81012;-69
2024/02/03 09:11:35;;;;;;;8.13;3.65;;;23.90;47.40;;;;;;6154549;28;82104;-72
2024/02/03 09:14:36;;;;;;;8.35;3.28;;;23.90;47.70;;;;;;6140038;28;80895;-70
2024/02/03 09:17:36;;;;;;;4.10;2.42;;;23.90;47.50;;;;;;6137600;28;83465;-72
2024/02/03 09:20:37;;;;;;;6.30;2.95;;;23.90;47.30;;;;;;6152729;28;80387;-74
2024/02/03 09:23:38;;;;;;;5.25;2.72;;;23.90;47.40;;;;;;6152352;28;80440;-70
2024/02/03 09:26:39;;;;;;;4.75;2.90;;;23.90;47.20;;;;;;6153469;28;82845;-72
2024/02/03 09:29:40;;;;;;;6.15;2.80;;;23.90;47.20;;;;;;6148225;28;81392;-72
2024/02/03 09:32:41;;;;;;;4.50;2.60;;;23.90;47.20;;;;;;6131607;28;82103;-70
2024/02/03 09:35:41;;;;;;;4.80;2.60;;;23.90;47.20;;;;;;6143573;28;80982;-74
2024/02/03 09:38:42;;;;;;;5.10;2.83;;;23.90;47.20;;;;;;6143450;28;80251;-72
2024/02/03 09:41:42;;;;;;;6.47;2.95;;;23.90;47.20;;;;;;6151019;28;80819;-70
2024/02/03 09:44:43;;;;;;;4.72;2.50;;;23.90;47.10;;;;;;6150711;28;81881;-66
2024/02/03 09:47:43;;;;;;;5.72;2.97;;;24.00;47.30;;;;;;6144149;28;80480;-72
2024/02/03 09:50:44;;;;;;;6.65;2.58;;;24.00;47.40;;;;;;6144881;28;80700;-70
2024/02/03 09:53:44;;;;;;;4.72;2.85;;;24.00;47.30;;;;;;6147731;28;80396;-57
2024/02/03 09:56:46;;;;;;;10.40;2.90;;;24.00;47.40;;;;;;6148464;28;80830;-52
2024/02/03 09:59:46;;;;;;;3.90;2.70;;;24.00;47.30;;;;;;6153338;28;80994;-51
2024/02/03 10:02:47;;;;;;;5.03;2.85;;;23.90;47.50;;;;;;6151171;28;80713;-56
2024/02/03 10:05:48;;;;;;;3.10;2.28;;;23.90;47.30;;;;;;6152006;28;80387;-58
2024/02/03 10:08:48;;;;;;;5.97;2.25;;;23.90;47.10;;;;;;6151550;28;80510;-57
2024/02/03 10:11:49;;;;;;;3.25;2.20;;;23.90;47.20;;;;;;6150451;28;83297;-53
2024/02/03 10:14:49;;;;;;;6.38;2.30;;;23.80;47.20;;;;;;6172183;28;82809;-51
2024/02/03 10:17:50;;;;;;;6.22;2.38;;;23.80;47.30;;;;;;6151341;28;81499;-53
2024/02/03 10:20:50;;;;;;;5.28;2.45;;;23.80;47.20;;;;;;6150606;28;80728;-55
2024/02/03 10:23:51;;;;;;;4.55;2.30;;;23.70;46.80;;;;;;6138701;28;81847;-53
2024/02/03 10:26:51;;;;;;;4.30;2.47;;;23.70;46.80;;;;;;6144619;28;80536;-54
2024/02/03 10:29:52;;;;;;;4.63;2.63;;;23.80;46.80;;;;;;6140715;28;81075;-58
2024/02/03 10:32:52;;;;;;;5.93;2.15;;;23.70;46.60;;;;;;6138951;28;80580;-59
2024/02/03 10:35:53;;;;;;;8.10;2.17;;;23.80;46.40;;;;;;6156422;28;80670;-59
2024/02/03 10:38:53;;;;;;;4.82;2.40;;;23.80;46.70;;;;;;6164625;28;80867;-58
2024/02/03 10:41:54;;;;;;;6.85;2.55;;;23.80;46.90;;;;;;6162615;28;81788;-59
2024/02/03 10:44:54;;;;;;;5.53;2.35;;;23.80;46.70;;;;;;6155378;28;82428;-53
2024/02/03 10:47:55;;;;;;;8.45;2.50;;;23.70;46.80;;;;;;6148020;28;80356;-52
2024/02/03 10:50:55;;;;;;;5.85;2.08;;;23.70;47.10;;;;;;6151519;28;84411;-52
2024/02/03 10:53:56;;;;;;;9.25;2.40;;;23.70;47.10;;;;;;6155406;28;81933;-54
2024/02/03 10:56:56;;;;;;;12.00;2.40;;;23.70;47.20;;;;;;6156195;28;84208;-55
2024/02/03 10:59:57;;;;;;;10.32;2.67;;;23.80;47.10;;;;;;6155819;28;80466;-54
2024/02/03 11:02:57;;;;;;;4.45;2.38;;;23.80;47.30;;;;;;6156135;28;80445;-57
2024/02/03 11:05:58;;;;;;;8.05;2.80;;;23.80;47.80;;;;;;6152285;28;84212;-63
2024/02/03 11:08:58;;;;;;;10.27;2.72;;;23.80;47.60;;;;;;6149147;28;80461;-62
2024/02/03 11:11:59;;;;;;;20.08;3.58;;;23.80;47.50;;;;;;6151444;28;80696;-65
2024/02/03 11:14:59;;;;;;;4.22;2.40;;;23.80;47.40;;;;;;6153516;28;80657;-64
2024/02/03 11:18:00;;;;;;;7.57;2.45;;;23.80;47.20;;;;;;6145806;28;80576;-66
2024/02/03 11:21:00;;;;;;;7.88;2.40;;;23.80;47.10;;;;;;6150100;28;80929;-65
2024/02/03 11:24:01;;;;;;;8.65;2.50;;;23.70;46.90;;;;;;6138968;28;81233;-65
2024/02/03 11:27:07;;;;;;;3.28;2.13;;;23.70;46.70;;;;;;6146184;28;80455;-65
2024/02/03 11:30:08;;;;;;;6.22;2.45;;;23.70;46.60;;;;;;6152593;28;81553;-65
2024/02/03 11:33:09;;;;;;;5.65;2.42;;;23.60;46.50;;;;;;6153087;28;81356;-64
2024/02/03 11:36:09;;;;;;;6.82;2.30;;;23.60;46.40;;;;;;6155056;28;82848;-64
2024/02/03 11:39:10;;;;;;;5.43;2.13;;;23.60;46.30;;;;;;6154249;28;81190;-64
2024/02/03 11:42:10;;;;;;;5.40;2.28;;;23.60;46.20;;;;;;6154776;28;80780;-64
2024/02/03 11:45:11;;;;;;;5.53;1.85;;;23.60;46.20;;;;;;6153810;28;81288;-63
2024/02/03 11:48:11;;;;;;;4.57;1.77;;;23.60;45.90;;;;;;6145789;28;80204;-63
2024/02/03 11:51:14;;;;;;;3.65;2.10;;;23.60;45.80;;;;;;6155185;28;80388;-64
2024/02/03 11:54:14;;;;;;;5.50;2.10;;;23.60;45.80;;;;;;6154793;28;80535;-64
2024/02/03 11:57:15;;;;;;;4.68;2.33;;;23.60;45.60;;;;;;6153833;28;81706;-63
2024/02/03 12:00:15;;;;;;;6.38;2.50;;;23.60;45.40;;;;;;6155497;28;80455;-63
2024/02/03 12:03:16;;;;;;;4.85;2.20;;;23.60;45.40;;;;;;6153742;28;84152;-57
2024/02/03 12:06:16;;;;;;;3.13;1.92;;;23.60;45.30;;;;;;6142906;28;80568;-56
2024/02/03 12:09:18;;;;;;;5.03;2.00;;;23.60;45.40;;;;;;6154799;28;80373;-55
2024/02/03 12:12:18;;;;;;;5.22;2.30;;;23.60;45.30;;;;;;6154937;28;80317;-57
2024/02/03 12:15:19;;;;;;;3.78;1.88;;;23.60;45.30;;;;;;6154554;28;81399;-56
2024/02/03 12:18:20;;;;;;;4.43;2.28;;;23.60;45.20;;;;;;6154090;28;82297;-55
2024/02/03 12:21:20;;;;;;;3.83;2.08;;;23.60;45.20;;;;;;6153958;28;81006;-57
2024/02/03 12:24:21;;;;;;;3.03;2.30;;;23.70;45.20;;;;;;6154252;28;81170;-56
2024/02/03 12:27:21;;;;;;;3.55;1.83;;;23.70;45.20;;;;;;6153227;28;80621;-55
2024/02/03 12:30:22;;;;;;;3.45;2.17;;;23.70;45.20;;;;;;6151926;28;80323;-56
2024/02/03 12:33:22;;;;;;;2.70;1.98;;;23.70;45.30;;;;;;6148529;28;80663;-56
2024/02/03 12:36:24;;;;;;;3.63;2.40;;;23.70;45.20;;;;;;6154089;28;80110;-57
2024/02/03 12:39:24;;;;;;;5.32;2.38;;;23.70;45.20;;;;;;6154213;28;80378;-64
2024/02/03 12:42:25;;;;;;;3.47;1.90;;;23.70;45.10;;;;;;6153016;28;81058;-64
2024/02/03 12:45:26;;;;;;;4.55;2.00;;;23.80;45.00;;;;;;6144042;28;80498;-64
2024/02/03 12:48:26;;;;;;;3.00;1.98;;;23.80;45.20;;;;;;6139254;28;81503;-64
2024/02/03 12:51:28;;;;;;;2.38;1.83;;;23.80;45.10;;;;;;6153004;28;82609;-64
2024/02/03 12:54:29;;;;;;;3.83;1.77;;;23.80;45.00;;;;;;6140514;28;81021;-65
2024/02/03 12:57:29;;;;;;;2.95;2.10;;;23.80;45.00;;;;;;6153380;28;80860;-65
2024/02/03 13:00:30;;;;;;;4.13;1.60;;;23.80;44.90;;;;;;6150367;28;80966;-66
2024/02/03 13:03:30;;;;;;;2.33;1.83;;;23.80;45.10;;;;;;6154363;28;80872;-65
2024/02/03 13:06:31;;;;;;;4.35;2.13;;;23.80;45.10;;;;;;6152772;28;83751;-65
2024/02/03 13:09:31;;;;;;;3.53;2.13;;;23.80;45.00;;;;;;6144851;28;88194;-66
2024/02/03 13:12:32;;;;;;;3.35;2.10;;;23.80;45.00;;;;;;6146804;28;80078;-64
2024/02/03 13:15:33;;;;;;;3.42;1.90;;;23.80;44.90;;;;;;6168053;28;80941;-63
2024/02/03 13:18:35;;;;;;;3.80;2.35;;;23.80;44.90;;;;;;6153255;28;80642;-64
2024/02/03 13:21:35;;;;;;;2.78;2.13;;;23.80;45.00;;;;;;6153355;28;80671;-64
2024/02/03 13:24:35;;;;;;;3.20;1.90;;;23.80;44.90;;;;;;6139423;28;80356;-65
2024/02/03 13:27:36;;;;;;;2.92;2.20;;;23.80;44.90;;;;;;6153542;28;80610;-64
2024/02/03 13:30:36;;;;;;;3.65;2.08;;;23.80;44.80;;;;;;6149220;28;81737;-64
2024/02/03 13:33:37;;;;;;;4.15;2.30;;;23.80;44.80;;;;;;6150108;28;81304;-67
2024/02/03 13:36:37;;;;;;;3.67;2.33;;;23.80;44.80;;;;;;6152936;28;80245;-66
2024/02/03 13:39:38;;;;;;;2.63;2.00;;;23.80;44.90;;;;;;6150248;28;80587;-66
2024/02/03 13:42:38;;;;;;;3.40;2.20;;;23.80;44.80;;;;;;6144382;28;80613;-66
2024/02/03 13:45:39;;;;;;;2.92;1.95;;;23.80;44.80;;;;;;6153008;28;80217;-66
2024/02/03 13:48:40;;;;;;;2.88;2.00;;;23.80;44.70;;;;;;6151793;28;80749;-67
2024/02/03 13:51:40;;;;;;;4.07;2.17;;;23.80;44.70;;;;;;6153427;28;82348;-56
2024/02/03 13:54:41;;;;;;;3.58;2.28;;;23.80;44.80;;;;;;6147272;28;80515;-56
2024/02/03 13:57:41;;;;;;;2.75;2.25;;;23.80;44.70;;;;;;6148301;28;84134;-51
2024/02/03 14:00:42;;;;;;;3.28;2.22;;;23.80;44.70;;;;;;6175780;28;80446;-56
2024/02/03 14:03:43;;;;;;;5.18;2.30;;;23.80;44.70;;;;;;6162367;28;81790;-56
2024/02/03 14:06:43;;;;;;;3.25;2.00;;;23.80;44.80;;;;;;6147565;28;80314;-57
2024/02/03 14:09:44;;;;;;;5.28;2.35;;;23.80;44.90;;;;;;6151914;28;80715;-60
2024/02/03 14:12:44;;;;;;;3.08;2.20;;;23.80;44.90;;;;;;6152832;28;81340;-62
2024/02/03 14:15:45;;;;;;;4.75;1.88;;;23.80;45.00;;;;;;6151626;28;82504;-61
2024/02/03 14:18:45;;;;;;;4.50;2.10;;;23.90;45.30;;;;;;6152250;28;80585;-61
2024/02/03 14:21:46;;;;;;;4.55;2.45;;;23.90;45.10;;;;;;6151286;28;80556;-61
2024/02/03 14:24:46;;;;;;;4.22;2.00;;;23.90;45.00;;;;;;6153293;28;82708;-61
2024/02/03 14:27:47;;;;;;;4.22;1.40;;;23.90;45.00;;;;;;6152179;28;81332;-60
2024/02/03 14:30:47;;;;;;;3.17;2.10;;;23.90;45.10;;;;;;6146824;28;80412;-61
2024/02/03 14:33:48;;;;;;;5.88;2.10;;;24.00;45.10;;;;;;6149717;28;80576;-60
2024/02/03 14:36:48;;;;;;;2.70;1.98;;;24.00;45.20;;;;;;6145757;28;81462;-60
2024/02/03 14:39:49;;;;;;;4.22;2.40;;;24.00;45.50;;;;;;6149648;28;82888;-63
2024/02/03 14:42:49;;;;;;;9.18;2.85;;;24.00;45.50;;;;;;6152011;28;80668;-58
2024/02/03 14:45:50;;;;;;;9.60;3.83;;;24.00;45.60;;;;;;6150252;28;82220;-62
2024/02/03 14:48:50;;;;;;;10.52;4.00;;;24.00;45.80;;;;;;6135934;28;81647;-53
2024/02/03 14:51:51;;;;;;;10.55;4.47;;;24.00;46.10;;;;;;6149624;28;80437;-50
2024/02/03 14:54:51;;;;;;;12.85;4.72;;;24.00;45.90;;;;;;6137123;28;80682;-51
2024/02/03 14:57:52;;;;;;;16.13;5.60;;;24.00;46.20;;;;;;6147076;28;81213;-56
2024/02/03 15:00:54;;;;;;;15.38;5.53;;;24.00;46.80;;;;;;6149062;28;81620;-53
2024/02/03 15:03:54;;;;;;;19.85;6.25;;;24.10;46.60;;;;;;6149895;28;81498;-54
2024/02/03 15:06:55;;;;;;;20.73;6.53;;;24.00;46.80;;;;;;6149854;28;80480;-53
2024/02/03 15:09:55;;;;;;;23.10;6.25;;;24.10;48.10;;;;;;6148130;28;80496;-55
2024/02/03 15:12:56;;;;;;;20.60;7.28;;;24.10;49.00;;;;;;6149729;28;81567;-57
2024/02/03 15:15:57;;;;;;;17.33;6.38;;;24.10;48.60;;;;;;6150989;28;80623;-59
2024/02/03 15:18:57;;;;;;;17.40;6.47;;;24.10;48.90;;;;;;6148337;28;80551;-59
2024/02/03 15:21:58;;;;;;;16.30;6.15;;;24.10;49.50;;;;;;6138212;28;82590;-54
2024/02/03 15:24:58;;;;;;;15.93;5.88;;;24.10;49.50;;;;;;6155007;28;80229;-63
2024/02/03 15:27:59;;;;;;;19.38;6.05;;;24.10;49.50;;;;;;6154717;28;80652;-63
2024/02/03 15:30:59;;;;;;;18.08;5.93;;;24.00;49.60;;;;;;6145109;28;80166;-61
2024/02/03 15:34:00;;;;;;;20.88;6.60;;;24.10;49.60;;;;;;6144443;28;80591;-61
2024/02/03 15:37:01;;;;;;;16.75;6.35;;;24.00;50.00;;;;;;6154150;28;82446;-59